sensor_id;sensor_type;location;lat;lon;timestamp;P1;durP1;ratioP1;P2;durP2;ratioP2
8297;SDS011;4187;42.778;23.242;2022-12-18T00:01:59;8.87;;;7.90;;
8297;SDS011;4187;42.778;23.242;2022-12-18T00:04:26;10.77;;;8.93;;
8297;SDS011;4187;42.778;23.242;2022-12-18T00:06:53;10.77;;;8.80;;
8297;SDS011;4187;42.778;23.242;2022-12-18T00:09:20;12.33;;;8.97;;
8297;SDS011;4187;42.778;23.242;2022-12-18T00:11:47;11.50;;;9.00;;
8297;SDS011;4187;42.778;23.242;2022-12-18T00:14:14;9.90;;;8.40;;
8297;SDS011;4187;42.778;23.242;2022-12-18T00:16:44;11.57;;;8.17;;
8297;SDS011;4187;42.778;23.242;2022-12-18T00:19:12;10.83;;;8.30;;
8297;SDS011;4187;42.778;23.242;2022-12-18T00:21:39;12.50;;;9.43;;
8297;SDS011;4187;42.778;23.242;2022-12-18T00:24:07;11.53;;;9.13;;
8297;SDS011;4187;42.778;23.242;2022-12-18T00:26:35;11.13;;;8.50;;
8297;SDS011;4187;42.778;23.242;2022-12-18T00:29:03;10.27;;;8.20;;
8297;SDS011;4187;42.778;23.242;2022-12-18T00:31:32;11.80;;;8.40;;
8297;SDS011;4187;42.778;23.242;2022-12-18T00:34:01;12.07;;;9.10;;
8297;SDS011;4187;42.778;23.242;2022-12-18T00:36:29;11.00;;;8.50;;
8297;SDS011;4187;42.778;23.242;2022-12-18T00:38:59;12.37;;;9.23;;
8297;SDS011;4187;42.778;23.242;2022-12-18T00:41:27;10.47;;;8.43;;
8297;SDS011;4187;42.778;23.242;2022-12-18T00:44:12;10.63;;;9.07;;
8297;SDS011;4187;42.778;23.242;2022-12-18T00:46:40;10.70;;;8.43;;
8297;SDS011;4187;42.778;23.242;2022-12-18T00:49:09;9.77;;;7.97;;
8297;SDS011;4187;42.778;23.242;2022-12-18T00:51:40;11.80;;;8.60;;
8297;SDS011;4187;42.778;23.242;2022-12-18T00:54:07;12.57;;;8.87;;
8297;SDS011;4187;42.778;23.242;2022-12-18T00:56:34;10.97;;;8.80;;
8297;SDS011;4187;42.778;23.242;2022-12-18T00:59:02;12.10;;;8.27;;
8297;SDS011;4187;42.778;23.242;2022-12-18T01:01:29;13.43;;;9.63;;
8297;SDS011;4187;42.778;23.242;2022-12-18T01:03:57;12.37;;;9.37;;
8297;SDS011;4187;42.778;23.242;2022-12-18T01:06:25;12.40;;;9.60;;
8297;SDS011;4187;42.778;23.242;2022-12-18T01:08:52;12.43;;;8.70;;
8297;SDS011;4187;42.778;23.242;2022-12-18T01:11:19;17.40;;;12.33;;
8297;SDS011;4187;42.778;23.242;2022-12-18T01:13:47;16.00;;;12.60;;
8297;SDS011;4187;42.778;23.242;2022-12-18T01:16:15;15.87;;;12.47;;
8297;SDS011;4187;42.778;23.242;2022-12-18T01:18:43;12.63;;;9.60;;
8297;SDS011;4187;42.778;23.242;2022-12-18T01:21:11;12.37;;;9.67;;
8297;SDS011;4187;42.778;23.242;2022-12-18T01:23:41;12.17;;;9.87;;
8297;SDS011;4187;42.778;23.242;2022-12-18T01:26:12;11.33;;;9.73;;
8297;SDS011;4187;42.778;23.242;2022-12-18T01:28:40;16.17;;;10.00;;
8297;SDS011;4187;42.778;23.242;2022-12-18T01:31:10;11.23;;;9.70;;
8297;SDS011;4187;42.778;23.242;2022-12-18T01:33:38;12.43;;;9.40;;
8297;SDS011;4187;42.778;23.242;2022-12-18T01:36:05;10.30;;;8.40;;
8297;SDS011;4187;42.778;23.242;2022-12-18T01:38:32;11.87;;;9.40;;
8297;SDS011;4187;42.778;23.242;2022-12-18T01:41:01;13.47;;;9.17;;
8297;SDS011;4187;42.778;23.242;2022-12-18T01:43:42;12.40;;;9.63;;
8297;SDS011;4187;42.778;23.242;2022-12-18T01:46:11;10.33;;;8.87;;
8297;SDS011;4187;42.778;23.242;2022-12-18T01:48:38;10.80;;;9.20;;
8297;SDS011;4187;42.778;23.242;2022-12-18T01:51:06;11.33;;;8.73;;
8297;SDS011;4187;42.778;23.242;2022-12-18T01:53:36;11.10;;;8.17;;
8297;SDS011;4187;42.778;23.242;2022-12-18T01:56:06;10.80;;;8.10;;
8297;SDS011;4187;42.778;23.242;2022-12-18T01:58:36;9.40;;;8.07;;
8297;SDS011;4187;42.778;23.242;2022-12-18T02:01:09;10.23;;;8.43;;
8297;SDS011;4187;42.778;23.242;2022-12-18T02:03:36;10.77;;;8.20;;
8297;SDS011;4187;42.778;23.242;2022-12-18T02:06:05;9.77;;;8.73;;
8297;SDS011;4187;42.778;23.242;2022-12-18T02:08:40;14.77;;;8.20;;
8297;SDS011;4187;42.778;23.242;2022-12-18T02:11:18;11.50;;;7.90;;
8297;SDS011;4187;42.778;23.242;2022-12-18T02:13:56;13.47;;;8.30;;
8297;SDS011;4187;42.778;23.242;2022-12-18T02:16:32;10.30;;;8.20;;
8297;SDS011;4187;42.778;23.242;2022-12-18T02:19:06;13.30;;;7.80;;
8297;SDS011;4187;42.778;23.242;2022-12-18T02:21:44;11.47;;;8.27;;
8297;SDS011;4187;42.778;23.242;2022-12-18T02:24:25;9.67;;;7.47;;
8297;SDS011;4187;42.778;23.242;2022-12-18T02:26:59;11.23;;;8.23;;
8297;SDS011;4187;42.778;23.242;2022-12-18T02:29:29;10.80;;;8.87;;
8297;SDS011;4187;42.778;23.242;2022-12-18T02:31:59;12.70;;;9.03;;
8297;SDS011;4187;42.778;23.242;2022-12-18T02:34:27;10.73;;;8.67;;
8297;SDS011;4187;42.778;23.242;2022-12-18T02:36:57;12.40;;;8.33;;
8297;SDS011;4187;42.778;23.242;2022-12-18T02:39:28;11.20;;;7.90;;
8297;SDS011;4187;42.778;23.242;2022-12-18T02:41:57;10.07;;;8.50;;
8297;SDS011;4187;42.778;23.242;2022-12-18T02:44:27;11.00;;;7.67;;
8297;SDS011;4187;42.778;23.242;2022-12-18T02:46:54;10.83;;;8.30;;
8297;SDS011;4187;42.778;23.242;2022-12-18T02:49:26;10.10;;;8.73;;
8297;SDS011;4187;42.778;23.242;2022-12-18T02:52:02;12.50;;;9.87;;
8297;SDS011;4187;42.778;23.242;2022-12-18T02:54:37;13.47;;;9.00;;
8297;SDS011;4187;42.778;23.242;2022-12-18T02:57:19;30.97;;;17.53;;
8297;SDS011;4187;42.778;23.242;2022-12-18T02:59:56;24.33;;;16.30;;
8297;SDS011;4187;42.778;23.242;2022-12-18T03:02:28;19.47;;;14.23;;
8297;SDS011;4187;42.778;23.242;2022-12-18T03:05:01;17.93;;;13.27;;
8297;SDS011;4187;42.778;23.242;2022-12-18T03:07:35;15.47;;;12.73;;
8297;SDS011;4187;42.778;23.242;2022-12-18T03:10:07;13.07;;;11.00;;
8297;SDS011;4187;42.778;23.242;2022-12-18T03:12:40;9.73;;;8.77;;
8297;SDS011;4187;42.778;23.242;2022-12-18T03:15:11;11.50;;;9.80;;
8297;SDS011;4187;42.778;23.242;2022-12-18T03:17:41;10.67;;;8.97;;
8297;SDS011;4187;42.778;23.242;2022-12-18T03:20:13;11.07;;;9.43;;
8297;SDS011;4187;42.778;23.242;2022-12-18T03:22:45;11.30;;;8.10;;
8297;SDS011;4187;42.778;23.242;2022-12-18T03:25:17;11.23;;;9.07;;
8297;SDS011;4187;42.778;23.242;2022-12-18T03:27:47;10.33;;;8.40;;
8297;SDS011;4187;42.778;23.242;2022-12-18T03:30:18;13.10;;;9.93;;
8297;SDS011;4187;42.778;23.242;2022-12-18T03:32:46;14.33;;;10.40;;
8297;SDS011;4187;42.778;23.242;2022-12-18T03:35:16;12.33;;;9.30;;
8297;SDS011;4187;42.778;23.242;2022-12-18T03:37:47;11.33;;;9.57;;
8297;SDS011;4187;42.778;23.242;2022-12-18T03:40:14;12.60;;;9.67;;
8297;SDS011;4187;42.778;23.242;2022-12-18T03:42:43;10.90;;;8.50;;
8297;SDS011;4187;42.778;23.242;2022-12-18T03:45:19;11.03;;;9.10;;
8297;SDS011;4187;42.778;23.242;2022-12-18T03:47:52;12.40;;;9.40;;
8297;SDS011;4187;42.778;23.242;2022-12-18T03:50:27;12.10;;;10.13;;
8297;SDS011;4187;42.778;23.242;2022-12-18T03:53:04;11.83;;;9.23;;
8297;SDS011;4187;42.778;23.242;2022-12-18T03:55:40;13.00;;;9.77;;
8297;SDS011;4187;42.778;23.242;2022-12-18T03:58:09;13.73;;;10.13;;
8297;SDS011;4187;42.778;23.242;2022-12-18T04:00:39;16.83;;;10.33;;
8297;SDS011;4187;42.778;23.242;2022-12-18T04:03:07;14.43;;;11.20;;
8297;SDS011;4187;42.778;23.242;2022-12-18T04:05:35;15.20;;;10.67;;
8297;SDS011;4187;42.778;23.242;2022-12-18T04:08:03;12.77;;;10.27;;
8297;SDS011;4187;42.778;23.242;2022-12-18T04:10:31;12.87;;;10.50;;
8297;SDS011;4187;42.778;23.242;2022-12-18T04:12:58;15.60;;;11.83;;
8297;SDS011;4187;42.778;23.242;2022-12-18T04:15:26;15.30;;;11.13;;
8297;SDS011;4187;42.778;23.242;2022-12-18T04:17:53;15.53;;;11.47;;
8297;SDS011;4187;42.778;23.242;2022-12-18T04:20:20;15.67;;;11.53;;
8297;SDS011;4187;42.778;23.242;2022-12-18T04:22:47;14.57;;;10.40;;
8297;SDS011;4187;42.778;23.242;2022-12-18T04:25:14;15.30;;;11.60;;
8297;SDS011;4187;42.778;23.242;2022-12-18T04:27:41;15.13;;;11.90;;
8297;SDS011;4187;42.778;23.242;2022-12-18T04:30:08;16.10;;;11.90;;
8297;SDS011;4187;42.778;23.242;2022-12-18T04:32:37;15.90;;;12.27;;
8297;SDS011;4187;42.778;23.242;2022-12-18T04:35:04;16.23;;;12.70;;
8297;SDS011;4187;42.778;23.242;2022-12-18T04:37:35;16.27;;;13.00;;
8297;SDS011;4187;42.778;23.242;2022-12-18T04:40:02;16.03;;;12.40;;
8297;SDS011;4187;42.778;23.242;2022-12-18T04:42:29;15.80;;;11.77;;
8297;SDS011;4187;42.778;23.242;2022-12-18T04:44:56;16.60;;;12.50;;
8297;SDS011;4187;42.778;23.242;2022-12-18T04:47:23;16.03;;;12.03;;
8297;SDS011;4187;42.778;23.242;2022-12-18T04:49:51;17.20;;;12.80;;
8297;SDS011;4187;42.778;23.242;2022-12-18T04:52:18;17.37;;;13.00;;
8297;SDS011;4187;42.778;23.242;2022-12-18T04:54:45;16.00;;;11.73;;
8297;SDS011;4187;42.778;23.242;2022-12-18T04:57:12;16.73;;;12.50;;
8297;SDS011;4187;42.778;23.242;2022-12-18T04:59:38;15.47;;;11.40;;
8297;SDS011;4187;42.778;23.242;2022-12-18T05:02:05;17.73;;;12.10;;
8297;SDS011;4187;42.778;23.242;2022-12-18T05:04:32;18.27;;;13.23;;
8297;SDS011;4187;42.778;23.242;2022-12-18T05:07:00;21.20;;;15.87;;
8297;SDS011;4187;42.778;23.242;2022-12-18T05:09:27;23.23;;;15.20;;
8297;SDS011;4187;42.778;23.242;2022-12-18T05:11:54;21.57;;;15.33;;
8297;SDS011;4187;42.778;23.242;2022-12-18T05:14:20;18.17;;;14.67;;
8297;SDS011;4187;42.778;23.242;2022-12-18T05:16:48;19.87;;;13.40;;
8297;SDS011;4187;42.778;23.242;2022-12-18T05:19:15;18.07;;;13.57;;
8297;SDS011;4187;42.778;23.242;2022-12-18T05:21:41;15.87;;;11.30;;
8297;SDS011;4187;42.778;23.242;2022-12-18T05:24:10;15.40;;;11.27;;
8297;SDS011;4187;42.778;23.242;2022-12-18T05:26:36;16.77;;;11.63;;
8297;SDS011;4187;42.778;23.242;2022-12-18T05:29:03;15.83;;;12.33;;
8297;SDS011;4187;42.778;23.242;2022-12-18T05:31:30;18.20;;;12.10;;
8297;SDS011;4187;42.778;23.242;2022-12-18T05:33:57;17.03;;;11.50;;
8297;SDS011;4187;42.778;23.242;2022-12-18T05:36:24;16.80;;;12.80;;
8297;SDS011;4187;42.778;23.242;2022-12-18T05:38:51;17.03;;;12.83;;
8297;SDS011;4187;42.778;23.242;2022-12-18T05:41:19;19.33;;;13.23;;
8297;SDS011;4187;42.778;23.242;2022-12-18T05:43:46;19.10;;;13.50;;
8297;SDS011;4187;42.778;23.242;2022-12-18T05:46:13;18.83;;;13.67;;
8297;SDS011;4187;42.778;23.242;2022-12-18T05:48:42;20.93;;;14.30;;
8297;SDS011;4187;42.778;23.242;2022-12-18T05:51:11;18.90;;;14.13;;
8297;SDS011;4187;42.778;23.242;2022-12-18T05:53:39;18.60;;;13.30;;
8297;SDS011;4187;42.778;23.242;2022-12-18T05:56:07;20.17;;;14.63;;
8297;SDS011;4187;42.778;23.242;2022-12-18T05:58:37;21.10;;;14.17;;
8297;SDS011;4187;42.778;23.242;2022-12-18T06:01:08;18.80;;;13.03;;
8297;SDS011;4187;42.778;23.242;2022-12-18T06:03:36;19.57;;;15.23;;
8297;SDS011;4187;42.778;23.242;2022-12-18T06:06:04;22.17;;;15.97;;
8297;SDS011;4187;42.778;23.242;2022-12-18T06:08:38;21.00;;;13.93;;
8297;SDS011;4187;42.778;23.242;2022-12-18T06:11:05;19.77;;;14.47;;
8297;SDS011;4187;42.778;23.242;2022-12-18T06:13:32;20.67;;;14.20;;
8297;SDS011;4187;42.778;23.242;2022-12-18T06:16:02;19.23;;;13.67;;
8297;SDS011;4187;42.778;23.242;2022-12-18T06:18:29;19.87;;;13.77;;
8297;SDS011;4187;42.778;23.242;2022-12-18T06:20:59;19.57;;;13.43;;
8297;SDS011;4187;42.778;23.242;2022-12-18T06:23:26;19.73;;;13.60;;
8297;SDS011;4187;42.778;23.242;2022-12-18T06:25:53;19.30;;;13.67;;
8297;SDS011;4187;42.778;23.242;2022-12-18T06:28:20;18.23;;;13.07;;
8297;SDS011;4187;42.778;23.242;2022-12-18T06:30:47;20.50;;;14.80;;
8297;SDS011;4187;42.778;23.242;2022-12-18T06:33:16;18.43;;;13.40;;
8297;SDS011;4187;42.778;23.242;2022-12-18T06:35:43;18.93;;;13.90;;
8297;SDS011;4187;42.778;23.242;2022-12-18T06:38:10;19.30;;;13.47;;
8297;SDS011;4187;42.778;23.242;2022-12-18T06:40:37;20.73;;;14.33;;
8297;SDS011;4187;42.778;23.242;2022-12-18T06:43:05;16.93;;;13.33;;
8297;SDS011;4187;42.778;23.242;2022-12-18T06:45:32;18.30;;;13.53;;
8297;SDS011;4187;42.778;23.242;2022-12-18T06:47:59;20.33;;;13.33;;
8297;SDS011;4187;42.778;23.242;2022-12-18T06:50:27;17.60;;;12.03;;
8297;SDS011;4187;42.778;23.242;2022-12-18T06:52:54;19.37;;;12.10;;
8297;SDS011;4187;42.778;23.242;2022-12-18T06:55:21;15.47;;;12.27;;
8297;SDS011;4187;42.778;23.242;2022-12-18T06:57:48;18.57;;;13.47;;
8297;SDS011;4187;42.778;23.242;2022-12-18T07:00:15;20.30;;;13.93;;
8297;SDS011;4187;42.778;23.242;2022-12-18T07:02:42;19.87;;;13.10;;
8297;SDS011;4187;42.778;23.242;2022-12-18T07:05:09;17.67;;;13.83;;
8297;SDS011;4187;42.778;23.242;2022-12-18T07:07:37;20.23;;;14.17;;
8297;SDS011;4187;42.778;23.242;2022-12-18T07:10:04;22.20;;;15.23;;
8297;SDS011;4187;42.778;23.242;2022-12-18T07:12:33;19.67;;;14.43;;
8297;SDS011;4187;42.778;23.242;2022-12-18T07:15:02;23.30;;;16.13;;
8297;SDS011;4187;42.778;23.242;2022-12-18T07:17:31;21.10;;;14.53;;
8297;SDS011;4187;42.778;23.242;2022-12-18T07:19:58;19.93;;;14.17;;
8297;SDS011;4187;42.778;23.242;2022-12-18T07:22:25;20.73;;;14.77;;
8297;SDS011;4187;42.778;23.242;2022-12-18T07:24:54;19.57;;;14.63;;
8297;SDS011;4187;42.778;23.242;2022-12-18T07:27:21;18.63;;;13.53;;
8297;SDS011;4187;42.778;23.242;2022-12-18T07:29:48;18.73;;;13.47;;
8297;SDS011;4187;42.778;23.242;2022-12-18T07:32:15;22.43;;;14.07;;
8297;SDS011;4187;42.778;23.242;2022-12-18T07:34:42;19.03;;;13.03;;
8297;SDS011;4187;42.778;23.242;2022-12-18T07:37:09;20.00;;;13.93;;
8297;SDS011;4187;42.778;23.242;2022-12-18T07:39:36;19.27;;;14.17;;
8297;SDS011;4187;42.778;23.242;2022-12-18T07:42:04;21.27;;;13.73;;
8297;SDS011;4187;42.778;23.242;2022-12-18T07:44:48;20.10;;;13.83;;
8297;SDS011;4187;42.778;23.242;2022-12-18T07:47:15;20.33;;;14.43;;
8297;SDS011;4187;42.778;23.242;2022-12-18T07:49:42;20.93;;;14.57;;
8297;SDS011;4187;42.778;23.242;2022-12-18T07:52:09;19.67;;;14.50;;
8297;SDS011;4187;42.778;23.242;2022-12-18T07:54:37;18.90;;;13.73;;
8297;SDS011;4187;42.778;23.242;2022-12-18T07:57:05;21.63;;;14.57;;
8297;SDS011;4187;42.778;23.242;2022-12-18T07:59:32;22.90;;;15.20;;
8297;SDS011;4187;42.778;23.242;2022-12-18T08:01:59;19.93;;;14.23;;
8297;SDS011;4187;42.778;23.242;2022-12-18T08:04:26;18.77;;;13.83;;
8297;SDS011;4187;42.778;23.242;2022-12-18T08:06:53;20.37;;;14.60;;
8297;SDS011;4187;42.778;23.242;2022-12-18T08:09:20;22.00;;;15.23;;
8297;SDS011;4187;42.778;23.242;2022-12-18T08:11:46;24.13;;;14.13;;
8297;SDS011;4187;42.778;23.242;2022-12-18T08:14:15;19.83;;;13.70;;
8297;SDS011;4187;42.778;23.242;2022-12-18T08:16:41;19.60;;;14.00;;
8297;SDS011;4187;42.778;23.242;2022-12-18T08:19:08;21.50;;;15.50;;
8297;SDS011;4187;42.778;23.242;2022-12-18T08:21:35;23.93;;;14.47;;
8297;SDS011;4187;42.778;23.242;2022-12-18T08:24:03;20.43;;;13.67;;
8297;SDS011;4187;42.778;23.242;2022-12-18T08:26:30;23.27;;;13.70;;
8297;SDS011;4187;42.778;23.242;2022-12-18T08:28:58;20.90;;;13.83;;
8297;SDS011;4187;42.778;23.242;2022-12-18T08:31:28;17.87;;;13.47;;
8297;SDS011;4187;42.778;23.242;2022-12-18T08:33:56;20.10;;;13.97;;
8297;SDS011;4187;42.778;23.242;2022-12-18T08:36:24;20.20;;;13.83;;
8297;SDS011;4187;42.778;23.242;2022-12-18T08:38:51;20.33;;;14.27;;
8297;SDS011;4187;42.778;23.242;2022-12-18T08:41:18;19.93;;;13.77;;
8297;SDS011;4187;42.778;23.242;2022-12-18T08:43:45;22.93;;;15.00;;
8297;SDS011;4187;42.778;23.242;2022-12-18T08:46:33;21.40;;;14.90;;
8297;SDS011;4187;42.778;23.242;2022-12-18T08:49:02;20.07;;;14.50;;
8297;SDS011;4187;42.778;23.242;2022-12-18T08:51:29;22.77;;;15.00;;
8297;SDS011;4187;42.778;23.242;2022-12-18T08:53:56;21.47;;;14.47;;
8297;SDS011;4187;42.778;23.242;2022-12-18T08:56:23;22.60;;;14.47;;
8297;SDS011;4187;42.778;23.242;2022-12-18T08:58:51;20.63;;;14.10;;
8297;SDS011;4187;42.778;23.242;2022-12-18T09:01:19;21.17;;;14.23;;
8297;SDS011;4187;42.778;23.242;2022-12-18T09:03:47;21.63;;;14.27;;
8297;SDS011;4187;42.778;23.242;2022-12-18T09:06:15;20.53;;;14.37;;
8297;SDS011;4187;42.778;23.242;2022-12-18T09:08:42;19.23;;;13.93;;
8297;SDS011;4187;42.778;23.242;2022-12-18T09:11:14;20.63;;;14.07;;
8297;SDS011;4187;42.778;23.242;2022-12-18T09:13:44;20.83;;;14.97;;
8297;SDS011;4187;42.778;23.242;2022-12-18T09:16:11;22.03;;;15.10;;
8297;SDS011;4187;42.778;23.242;2022-12-18T09:18:38;23.90;;;14.47;;
8297;SDS011;4187;42.778;23.242;2022-12-18T09:21:10;21.97;;;15.20;;
8297;SDS011;4187;42.778;23.242;2022-12-18T09:23:38;22.33;;;14.33;;
8297;SDS011;4187;42.778;23.242;2022-12-18T09:26:05;21.53;;;14.43;;
8297;SDS011;4187;42.778;23.242;2022-12-18T09:28:32;19.27;;;14.03;;
8297;SDS011;4187;42.778;23.242;2022-12-18T09:30:59;21.37;;;15.13;;
8297;SDS011;4187;42.778;23.242;2022-12-18T09:33:30;24.53;;;15.93;;
8297;SDS011;4187;42.778;23.242;2022-12-18T09:35:57;20.87;;;14.17;;
8297;SDS011;4187;42.778;23.242;2022-12-18T09:38:28;36.73;;;22.77;;
8297;SDS011;4187;42.778;23.242;2022-12-18T09:40:56;23.47;;;16.30;;
8297;SDS011;4187;42.778;23.242;2022-12-18T09:43:26;22.00;;;14.87;;
8297;SDS011;4187;42.778;23.242;2022-12-18T09:45:56;19.83;;;13.90;;
8297;SDS011;4187;42.778;23.242;2022-12-18T09:48:28;20.43;;;12.97;;
8297;SDS011;4187;42.778;23.242;2022-12-18T09:50:58;17.67;;;11.93;;
8297;SDS011;4187;42.778;23.242;2022-12-18T09:53:30;20.77;;;14.70;;
8297;SDS011;4187;42.778;23.242;2022-12-18T09:56:01;16.20;;;12.20;;
8297;SDS011;4187;42.778;23.242;2022-12-18T09:58:30;18.17;;;12.97;;
8297;SDS011;4187;42.778;23.242;2022-12-18T10:01:06;18.97;;;13.20;;
8297;SDS011;4187;42.778;23.242;2022-12-18T10:03:36;18.40;;;12.57;;
8297;SDS011;4187;42.778;23.242;2022-12-18T10:06:04;20.30;;;13.97;;
8297;SDS011;4187;42.778;23.242;2022-12-18T10:08:39;17.23;;;13.37;;
8297;SDS011;4187;42.778;23.242;2022-12-18T10:11:19;20.50;;;14.23;;
8297;SDS011;4187;42.778;23.242;2022-12-18T10:13:54;16.50;;;11.83;;
8297;SDS011;4187;42.778;23.242;2022-12-18T10:16:27;18.47;;;13.00;;
8297;SDS011;4187;42.778;23.242;2022-12-18T10:19:21;19.43;;;13.60;;
8297;SDS011;4187;42.778;23.242;2022-12-18T10:21:58;20.17;;;13.20;;
8297;SDS011;4187;42.778;23.242;2022-12-18T10:24:55;19.67;;;14.40;;
8297;SDS011;4187;42.778;23.242;2022-12-18T10:27:29;18.53;;;13.00;;
8297;SDS011;4187;42.778;23.242;2022-12-18T10:29:57;20.37;;;14.10;;
8297;SDS011;4187;42.778;23.242;2022-12-18T10:32:25;19.70;;;13.07;;
8297;SDS011;4187;42.778;23.242;2022-12-18T10:34:55;23.67;;;14.70;;
8297;SDS011;4187;42.778;23.242;2022-12-18T10:37:24;21.13;;;15.20;;
8297;SDS011;4187;42.778;23.242;2022-12-18T10:40:06;20.83;;;14.87;;
8297;SDS011;4187;42.778;23.242;2022-12-18T10:42:36;20.87;;;14.37;;
8297;SDS011;4187;42.778;23.242;2022-12-18T10:45:07;17.37;;;12.60;;
8297;SDS011;4187;42.778;23.242;2022-12-18T10:47:41;16.10;;;12.73;;
8297;SDS011;4187;42.778;23.242;2022-12-18T10:50:17;18.63;;;13.73;;
8297;SDS011;4187;42.778;23.242;2022-12-18T10:52:53;16.20;;;11.77;;
8297;SDS011;4187;42.778;23.242;2022-12-18T10:55:23;16.37;;;12.60;;
8297;SDS011;4187;42.778;23.242;2022-12-18T10:57:59;16.27;;;12.77;;
8297;SDS011;4187;42.778;23.242;2022-12-18T11:00:42;18.73;;;12.70;;
8297;SDS011;4187;42.778;23.242;2022-12-18T11:03:17;16.93;;;12.87;;
8297;SDS011;4187;42.778;23.242;2022-12-18T11:06:01;17.03;;;12.17;;
8297;SDS011;4187;42.778;23.242;2022-12-18T11:08:30;19.40;;;12.13;;
8297;SDS011;4187;42.778;23.242;2022-12-18T11:10:58;16.90;;;13.13;;
8297;SDS011;4187;42.778;23.242;2022-12-18T11:13:25;17.70;;;12.27;;
8297;SDS011;4187;42.778;23.242;2022-12-18T11:15:54;17.27;;;11.77;;
8297;SDS011;4187;42.778;23.242;2022-12-18T11:18:22;18.80;;;12.33;;
8297;SDS011;4187;42.778;23.242;2022-12-18T11:20:53;21.87;;;12.40;;
8297;SDS011;4187;42.778;23.242;2022-12-18T11:23:22;16.97;;;13.20;;
8297;SDS011;4187;42.778;23.242;2022-12-18T11:25:50;18.97;;;13.30;;
8297;SDS011;4187;42.778;23.242;2022-12-18T11:28:28;19.43;;;13.33;;
8297;SDS011;4187;42.778;23.242;2022-12-18T11:33:45;18.90;;;12.60;;
8297;SDS011;4187;42.778;23.242;2022-12-18T11:36:18;19.20;;;13.57;;
8297;SDS011;4187;42.778;23.242;2022-12-18T11:38:46;22.07;;;15.23;;
8297;SDS011;4187;42.778;23.242;2022-12-18T11:41:16;33.63;;;18.20;;
8297;SDS011;4187;42.778;23.242;2022-12-18T11:43:50;21.07;;;14.13;;
8297;SDS011;4187;42.778;23.242;2022-12-18T11:46:23;30.53;;;19.27;;
8297;SDS011;4187;42.778;23.242;2022-12-18T11:48:58;32.67;;;18.33;;
8297;SDS011;4187;42.778;23.242;2022-12-18T11:51:32;32.50;;;16.73;;
8297;SDS011;4187;42.778;23.242;2022-12-18T11:54:06;22.33;;;14.27;;
8297;SDS011;4187;42.778;23.242;2022-12-18T11:56:39;24.60;;;15.80;;
8297;SDS011;4187;42.778;23.242;2022-12-18T11:59:15;25.07;;;16.07;;
8297;SDS011;4187;42.778;23.242;2022-12-18T12:01:54;24.27;;;16.20;;
8297;SDS011;4187;42.778;23.242;2022-12-18T12:04:30;18.30;;;12.73;;
8297;SDS011;4187;42.778;23.242;2022-12-18T12:07:18;18.87;;;13.10;;
8297;SDS011;4187;42.778;23.242;2022-12-18T12:09:54;18.00;;;12.97;;
8297;SDS011;4187;42.778;23.242;2022-12-18T12:12:31;16.90;;;13.07;;
8297;SDS011;4187;42.778;23.242;2022-12-18T12:15:16;19.83;;;13.10;;
8297;SDS011;4187;42.778;23.242;2022-12-18T12:17:55;32.40;;;21.73;;
8297;SDS011;4187;42.778;23.242;2022-12-18T12:20:30;47.90;;;33.80;;
8297;SDS011;4187;42.778;23.242;2022-12-18T12:23:09;25.30;;;19.77;;
8297;SDS011;4187;42.778;23.242;2022-12-18T12:25:46;86.97;;;51.97;;
8297;SDS011;4187;42.778;23.242;2022-12-18T12:28:20;40.97;;;26.57;;
8297;SDS011;4187;42.778;23.242;2022-12-18T12:31:01;23.93;;;17.60;;
8297;SDS011;4187;42.778;23.242;2022-12-18T12:33:37;20.20;;;13.50;;
8297;SDS011;4187;42.778;23.242;2022-12-18T12:36:15;20.03;;;14.80;;
8297;SDS011;4187;42.778;23.242;2022-12-18T12:38:48;18.70;;;13.53;;
8297;SDS011;4187;42.778;23.242;2022-12-18T12:41:20;19.23;;;13.90;;
8297;SDS011;4187;42.778;23.242;2022-12-18T12:44:16;18.40;;;13.13;;
8297;SDS011;4187;42.778;23.242;2022-12-18T12:46:49;18.33;;;12.33;;
8297;SDS011;4187;42.778;23.242;2022-12-18T12:49:22;19.90;;;14.50;;
8297;SDS011;4187;42.778;23.242;2022-12-18T12:51:52;21.30;;;15.27;;
8297;SDS011;4187;42.778;23.242;2022-12-18T12:54:27;19.73;;;12.37;;
8297;SDS011;4187;42.778;23.242;2022-12-18T12:56:56;20.20;;;13.70;;
8297;SDS011;4187;42.778;23.242;2022-12-18T12:59:30;22.60;;;14.13;;
8297;SDS011;4187;42.778;23.242;2022-12-18T13:02:09;17.93;;;11.97;;
8297;SDS011;4187;42.778;23.242;2022-12-18T13:04:47;21.30;;;12.90;;
8297;SDS011;4187;42.778;23.242;2022-12-18T13:07:19;20.00;;;14.17;;
8297;SDS011;4187;42.778;23.242;2022-12-18T13:10:12;41.40;;;23.50;;
8297;SDS011;4187;42.778;23.242;2022-12-18T13:12:52;58.73;;;37.87;;
8297;SDS011;4187;42.778;23.242;2022-12-18T13:15:23;22.73;;;15.77;;
8297;SDS011;4187;42.778;23.242;2022-12-18T13:18:12;22.67;;;15.63;;
8297;SDS011;4187;42.778;23.242;2022-12-18T13:20:42;22.37;;;15.73;;
8297;SDS011;4187;42.778;23.242;2022-12-18T13:28:59;20.27;;;14.97;;
8297;SDS011;4187;42.778;23.242;2022-12-18T13:34:36;21.10;;;16.07;;
8297;SDS011;4187;42.778;23.242;2022-12-18T13:43:28;22.93;;;19.80;;
8297;SDS011;4187;42.778;23.242;2022-12-18T13:46:04;21.07;;;14.10;;
8297;SDS011;4187;42.778;23.242;2022-12-18T13:48:47;18.83;;;13.77;;
8297;SDS011;4187;42.778;23.242;2022-12-18T13:51:18;19.60;;;12.43;;
8297;SDS011;4187;42.778;23.242;2022-12-18T13:53:48;28.57;;;19.50;;
8297;SDS011;4187;42.778;23.242;2022-12-18T13:56:17;21.20;;;15.77;;
8297;SDS011;4187;42.778;23.242;2022-12-18T14:01:46;27.03;;;18.53;;
8297;SDS011;4187;42.778;23.242;2022-12-18T14:04:19;19.43;;;12.97;;
8297;SDS011;4187;42.778;23.242;2022-12-18T14:06:50;18.47;;;11.63;;
8297;SDS011;4187;42.778;23.242;2022-12-18T14:09:20;23.07;;;17.00;;
8297;SDS011;4187;42.778;23.242;2022-12-18T14:11:50;28.67;;;19.00;;
8297;SDS011;4187;42.778;23.242;2022-12-18T14:14:40;30.90;;;19.70;;
8297;SDS011;4187;42.778;23.242;2022-12-18T14:17:09;50.10;;;35.20;;
8297;SDS011;4187;42.778;23.242;2022-12-18T14:19:40;87.67;;;54.20;;
8297;SDS011;4187;42.778;23.242;2022-12-18T14:22:13;75.70;;;45.13;;
8297;SDS011;4187;42.778;23.242;2022-12-18T14:24:42;26.10;;;17.70;;
8297;SDS011;4187;42.778;23.242;2022-12-18T14:27:13;33.67;;;24.93;;
8297;SDS011;4187;42.778;23.242;2022-12-18T14:29:47;33.10;;;23.70;;
8297;SDS011;4187;42.778;23.242;2022-12-18T14:32:14;30.53;;;21.20;;
8297;SDS011;4187;42.778;23.242;2022-12-18T14:34:43;32.07;;;21.57;;
8297;SDS011;4187;42.778;23.242;2022-12-18T14:37:11;93.30;;;52.03;;
8297;SDS011;4187;42.778;23.242;2022-12-18T14:39:40;29.77;;;20.87;;
8297;SDS011;4187;42.778;23.242;2022-12-18T14:42:18;54.53;;;33.33;;
8297;SDS011;4187;42.778;23.242;2022-12-18T14:44:45;47.37;;;29.77;;
8297;SDS011;4187;42.778;23.242;2022-12-18T14:47:13;39.90;;;25.63;;
8297;SDS011;4187;42.778;23.242;2022-12-18T14:49:41;32.53;;;20.33;;
8297;SDS011;4187;42.778;23.242;2022-12-18T14:52:16;50.40;;;28.03;;
8297;SDS011;4187;42.778;23.242;2022-12-18T14:54:49;25.23;;;16.00;;
8297;SDS011;4187;42.778;23.242;2022-12-18T14:57:18;20.70;;;14.40;;
8297;SDS011;4187;42.778;23.242;2022-12-18T14:59:48;18.07;;;12.03;;
8297;SDS011;4187;42.778;23.242;2022-12-18T15:02:18;17.23;;;12.70;;
8297;SDS011;4187;42.778;23.242;2022-12-18T15:04:48;18.47;;;13.37;;
8297;SDS011;4187;42.778;23.242;2022-12-18T15:07:34;20.63;;;14.63;;
8297;SDS011;4187;42.778;23.242;2022-12-18T15:10:10;17.67;;;12.53;;
8297;SDS011;4187;42.778;23.242;2022-12-18T15:12:41;15.57;;;12.63;;
8297;SDS011;4187;42.778;23.242;2022-12-18T15:18:14;24.47;;;16.90;;
8297;SDS011;4187;42.778;23.242;2022-12-18T15:20:44;44.17;;;27.37;;
8297;SDS011;4187;42.778;23.242;2022-12-18T15:23:24;49.70;;;36.43;;